Time;durP1;ratioP1;P1;durP2;ratioP2;P2;SDS_P1;SDS_P2;PMS_P1;PMS_P2;Temp;Humidity;BMP_temperature;BMP_pressure;BME280_temperature;BME280_humidity;BME280_pressure;Samples;Min_cycle;Max_cycle;Signal;HPM_P1;HPM_P2
2020/12/03 00:00:31;;;;;;;33.03;17.07;;;0.10;99.90;;;;;;5020882;28;20441;-87
2020/12/03 00:03:01;;;;;;;30.40;15.57;;;0.20;99.90;;;;;;5023736;28;20430;-87
2020/12/03 00:05:28;;;;;;;31.43;15.30;;;0.20;99.90;;;;;;5021459;28;20493;-86
2020/12/03 00:07:55;;;;;;;28.30;15.43;;;0.20;99.90;;;;;;5023473;28;20478;-87
2020/12/03 00:10:22;;;;;;;26.00;15.17;;;0.10;99.90;;;;;;5018009;28;20433;-86
2020/12/03 00:13:05;;;;;;;28.87;14.93;;;0.20;99.90;;;;;;5022611;28;20449;-86
2020/12/03 00:15:32;;;;;;;32.50;16.90;;;0.30;99.90;;;;;;5021964;28;20457;-86
2020/12/03 00:17:58;;;;;;;32.27;16.83;;;0.30;99.90;;;;;;5023669;28;20458;-87
2020/12/03 00:20:25;;;;;;;28.60;15.03;;;0.30;99.90;;;;;;5023446;28;20446;-87
2020/12/03 00:22:59;;;;;;;38.33;18.20;;;0.30;99.90;;;;;;5021424;28;20441;-86
2020/12/03 00:25:26;;;;;;;33.10;17.43;;;0.30;99.90;;;;;;5020246;28;20577;-86
2020/12/03 00:28:06;;;;;;;33.23;16.80;;;0.30;99.90;;;;;;5021399;28;20459;-86
2020/12/03 00:30:37;;;;;;;36.80;17.40;;;0.40;99.90;;;;;;5019329;28;20799;-88
2020/12/03 00:33:07;;;;;;;32.17;16.17;;;0.30;99.90;;;;;;5019516;28;20442;-85
2020/12/03 00:35:34;;;;;;;30.63;14.77;;;0.30;99.90;;;;;;5021361;28;20446;-87
2020/12/03 00:38:03;;;;;;;29.37;14.57;;;0.10;99.90;;;;;;5018700;28;20440;-87
2020/12/03 00:40:32;;;;;;;34.77;17.43;;;0.30;99.90;;;;;;5021990;28;20444;-87
2020/12/03 00:43:00;;;;;;;29.77;16.63;;;0.50;99.90;;;;;;5023153;28;20507;-86
2020/12/03 00:45:32;;;;;;;32.00;16.20;;;0.30;99.90;;;;;;5019463;28;20494;-86
2020/12/03 00:48:05;;;;;;;39.43;19.10;;;0.40;99.90;;;;;;5021010;28;20440;-85
2020/12/03 00:50:34;;;;;;;32.50;18.30;;;0.50;99.90;;;;;;5023897;28;20436;-87
2020/12/03 00:53:04;;;;;;;37.67;16.93;;;0.50;99.90;;;;;;5020857;28;20891;-86
2020/12/03 00:55:32;;;;;;;33.60;16.37;;;0.40;99.90;;;;;;5025548;28;20812;-86
2020/12/03 00:57:58;;;;;;;34.37;18.83;;;-0.30;99.90;;;;;;5026873;28;20455;-86
2020/12/03 01:00:24;;;;;;;35.23;18.37;;;0.40;99.90;;;;;;5025330;28;20450;-87
2020/12/03 01:02:51;;;;;;;41.60;19.00;;;0.50;99.90;;;;;;5025199;28;20445;-86
2020/12/03 01:05:20;;;;;;;30.03;17.20;;;0.40;99.90;;;;;;5025175;28;20523;-87
2020/12/03 01:07:49;;;;;;;38.00;18.50;;;0.40;99.90;;;;;;5024885;28;20473;-88
2020/12/03 01:10:20;;;;;;;35.00;17.30;;;0.50;99.90;;;;;;5027164;28;20871;-87
2020/12/03 01:12:47;;;;;;;29.40;16.40;;;0.50;99.90;;;;;;5023807;28;20522;-87
2020/12/03 01:15:15;;;;;;;35.20;17.70;;;0.50;99.90;;;;;;5026621;28;20448;-88
2020/12/03 01:17:42;;;;;;;36.03;17.70;;;0.30;99.90;;;;;;5021756;28;20441;-85
2020/12/03 01:20:10;;;;;;;37.80;19.20;;;0.40;99.90;;;;;;5023586;28;20958;-86
2020/12/03 01:22:38;;;;;;;44.13;20.07;;;0.40;99.90;;;;;;5026588;28;20807;-87
2020/12/03 01:25:04;;;;;;;38.43;17.27;;;0.40;99.90;;;;;;5025453;28;21010;-86
2020/12/03 01:27:31;;;;;;;34.37;17.37;;;;;;;;;;5025583;28;20445;-85
2020/12/03 01:29:57;;;;;;;31.80;17.90;;;0.40;99.90;;;;;;5024176;28;20445;-86
2020/12/03 01:32:24;;;;;;;39.20;15.80;;;;;;;;;;5025603;28;20436;-87
2020/12/03 01:34:50;;;;;;;32.90;16.50;;;0.40;99.90;;;;;;5024920;28;20435;-88
2020/12/03 01:37:17;;;;;;;33.03;17.60;;;0.40;99.90;;;;;;5023445;28;20436;-87
2020/12/03 01:39:45;;;;;;;33.80;19.23;;;0.50;99.90;;;;;;5026760;28;20471;-87
2020/12/03 01:42:11;;;;;;;37.07;19.90;;;0.40;99.90;;;;;;5026664;28;20448;-88
2020/12/03 01:44:42;;;;;;;32.70;17.50;;;0.40;99.90;;;;;;5018261;28;20488;-88
2020/12/03 01:47:16;;;;;;;46.00;19.27;;;0.40;99.90;;;;;;5015519;28;20449;-87
2020/12/03 01:49:42;;;;;;;39.80;17.70;;;0.40;99.90;;;;;;5016693;28;20445;-88
2020/12/03 01:52:09;;;;;;;32.87;17.47;;;0.40;99.90;;;;;;5015439;28;20475;-87
2020/12/03 01:54:35;;;;;;;39.23;19.50;;;0.40;99.90;;;;;;5015300;28;20973;-88
2020/12/03 01:57:41;;;;;;;39.77;18.50;;;0.50;99.90;;;;;;5015136;28;20459;-88
2020/12/03 02:00:08;;;;;;;35.57;18.20;;;0.50;99.90;;;;;;5015216;28;20948;-87
2020/12/03 02:02:35;;;;;;;32.07;18.13;;;0.50;99.90;;;;;;5015225;28;20448;-88
2020/12/03 02:05:09;;;;;;;35.20;17.53;;;0.60;99.90;;;;;;5013343;28;20496;-87
2020/12/03 02:07:36;;;;;;;33.27;17.90;;;0.60;99.90;;;;;;5014911;28;20490;-87
2020/12/03 02:10:03;;;;;;;39.70;18.50;;;0.40;99.90;;;;;;5015105;28;20969;-87
2020/12/03 02:12:30;;;;;;;31.80;17.03;;;0.40;99.90;;;;;;5015119;28;20563;-87
2020/12/03 02:14:56;;;;;;;33.37;16.30;;;0.50;99.90;;;;;;5015081;28;20957;-88
2020/12/03 02:17:23;;;;;;;33.20;16.83;;;0.50;99.90;;;;;;5015196;28;20467;-88
2020/12/03 02:19:55;;;;;;;35.90;17.63;;;0.50;99.90;;;;;;5013792;28;20932;-87
2020/12/03 02:22:21;;;;;;;34.30;17.67;;;0.50;99.90;;;;;;5014763;28;20440;-88
2020/12/03 02:24:48;;;;;;;35.70;18.03;;;0.40;99.90;;;;;;5014638;28;20504;-88
2020/12/03 02:27:16;;;;;;;35.47;18.23;;;0.50;99.90;;;;;;5014579;28;20447;-88
2020/12/03 02:29:43;;;;;;;36.13;18.63;;;0.60;99.90;;;;;;5014613;28;20444;-88
2020/12/03 02:32:09;;;;;;;30.47;17.80;;;0.60;99.90;;;;;;5014602;28;20456;-87
2020/12/03 02:34:36;;;;;;;34.70;17.30;;;0.60;99.90;;;;;;5013311;28;20462;-88
2020/12/03 02:37:04;;;;;;;35.17;19.37;;;0.70;99.90;;;;;;5014537;28;20797;-88
2020/12/03 02:39:33;;;;;;;39.77;18.37;;;0.60;99.90;;;;;;5015236;28;20452;-88
2020/12/03 02:41:59;;;;;;;37.63;19.03;;;0.60;99.90;;;;;;5014744;28;20450;-88
2020/12/03 02:44:27;;;;;;;33.63;18.80;;;0.60;99.90;;;;;;5014348;28;20496;-87
2020/12/03 02:46:53;;;;;;;39.60;18.07;;;0.60;99.90;;;;;;5014258;28;20447;-88
2020/12/03 02:49:20;;;;;;;35.23;17.40;;;0.50;99.90;;;;;;5013064;28;20454;-88
2020/12/03 02:51:46;;;;;;;37.27;19.80;;;0.50;99.90;;;;;;5014348;28;20480;-87
2020/12/03 02:54:14;;;;;;;27.90;14.03;;;0.50;99.90;;;;;;5013878;28;20486;-88
2020/12/03 02:56:41;;;;;;;30.23;12.70;;;0.50;99.90;;;;;;5014244;28;20445;-87
2020/12/03 02:59:09;;;;;;;28.17;12.97;;;0.30;99.90;;;;;;5013991;28;20972;-87
2020/12/03 03:01:35;;;;;;;37.93;16.57;;;0.30;99.90;;;;;;5014140;28;20447;-88
2020/12/03 03:04:04;;;;;;;36.00;15.23;;;0.30;99.90;;;;;;5012734;28;20498;-88
2020/12/03 03:06:30;;;;;;;24.17;13.73;;;0.20;99.90;;;;;;5013509;28;20923;-88
2020/12/03 03:08:56;;;;;;;37.47;18.97;;;0.20;99.90;;;;;;5012503;28;20464;-87
2020/12/03 03:11:23;;;;;;;32.30;17.57;;;0.20;99.90;;;;;;5014999;28;20462;-87
2020/12/03 03:13:50;;;;;;;38.63;19.03;;;0.30;99.90;;;;;;5013541;28;20441;-87
2020/12/03 03:16:16;;;;;;;31.37;17.03;;;0.30;99.90;;;;;;5010022;28;20829;-87
2020/12/03 03:18:42;;;;;;;33.07;16.70;;;0.20;99.90;;;;;;5013254;28;20506;-87
2020/12/03 03:21:09;;;;;;;34.27;16.40;;;0.20;99.90;;;;;;5015014;28;20461;-87
2020/12/03 03:23:35;;;;;;;29.23;14.73;;;0.10;99.90;;;;;;5013671;28;20443;-87
2020/12/03 03:26:02;;;;;;;39.87;17.50;;;0.10;99.90;;;;;;5013680;28;20446;-87
2020/12/03 03:28:29;;;;;;;35.77;18.50;;;0.10;99.90;;;;;;5013659;28;20448;-87
2020/12/03 03:30:55;;;;;;;33.50;17.10;;;0.10;99.90;;;;;;5013533;28;20448;-87
2020/12/03 03:33:22;;;;;;;36.73;18.67;;;0.10;99.90;;;;;;5012426;28;20449;-87
2020/12/03 03:35:48;;;;;;;42.63;18.90;;;0.10;99.90;;;;;;5013560;28;20516;-88
2020/12/03 03:38:14;;;;;;;34.50;17.07;;;0.10;99.90;;;;;;5013133;28;20938;-88
2020/12/03 03:40:41;;;;;;;25.80;13.20;;;0.10;99.90;;;;;;5013427;28;20445;-87
2020/12/03 03:43:07;;;;;;;40.03;19.47;;;0.20;99.90;;;;;;5011087;28;20453;-87
2020/12/03 03:45:35;;;;;;;34.97;14.80;;;0.10;99.90;;;;;;5011004;28;20498;-86
2020/12/03 03:48:01;;;;;;;41.60;19.20;;;0.20;99.90;;;;;;5011135;28;20448;-87
2020/12/03 03:50:28;;;;;;;36.40;20.43;;;-0.30;99.90;;;;;;5009703;28;20993;-88
2020/12/03 03:52:54;;;;;;;31.90;18.10;;;0.10;99.90;;;;;;5011145;28;20975;-87
2020/12/03 03:55:20;;;;;;;32.53;14.77;;;0.10;99.90;;;;;;5008452;28;20846;-87
2020/12/03 03:57:47;;;;;;;25.77;12.50;;;0.20;99.90;;;;;;5011160;28;20446;-86
2020/12/03 04:00:16;;;;;;;39.20;17.83;;;0.10;99.90;;;;;;5011215;28;20444;-87
2020/12/03 04:02:44;;;;;;;38.10;18.27;;;0.10;99.90;;;;;;5013250;28;20451;-87
2020/12/03 04:05:11;;;;;;;33.23;17.40;;;0.10;99.90;;;;;;5011944;28;21000;-88
2020/12/03 04:07:38;;;;;;;5.10;4.17;;;;;;;;;;5013094;28;20485;-87
2020/12/03 04:10:05;;;;;;;39.23;17.20;;;0.00;99.90;;;;;;5013256;28;20922;-88
2020/12/03 04:12:32;;;;;;;28.57;14.57;;;0.00;99.90;;;;;;5013349;28;20452;-88
2020/12/03 04:15:00;;;;;;;31.27;15.10;;;0.00;99.90;;;;;;5013109;28;20453;-88
2020/12/03 04:17:26;;;;;;;30.17;14.10;;;0.00;99.90;;;;;;5012899;28;20460;-88
2020/12/03 04:19:55;;;;;;;31.20;16.70;;;0.10;99.90;;;;;;5012073;28;20455;-85
2020/12/03 04:22:21;;;;;;;37.50;18.83;;;0.10;99.90;;;;;;5013167;28;20442;-86
2020/12/03 04:24:47;;;;;;;35.00;18.00;;;0.10;99.90;;;;;;5012878;28;21000;-87
2020/12/03 04:27:14;;;;;;;35.23;17.77;;;0.00;99.90;;;;;;5013600;28;20958;-87
2020/12/03 04:29:40;;;;;;;34.77;17.93;;;0.00;99.90;;;;;;5016799;28;20460;-88
2020/12/03 04:32:07;;;;;;;25.17;12.17;;;;;;;;;;5016906;28;20449;-87
2020/12/03 04:34:34;;;;;;;18.07;10.37;;;0.00;99.90;;;;;;5015669;28;20468;-88
2020/12/03 04:37:01;;;;;;;28.00;12.40;;;0.00;99.90;;;;;;5016811;28;20458;-87
2020/12/03 04:39:27;;;;;;;29.87;11.23;;;0.00;99.90;;;;;;5016757;28;20452;-87
2020/12/03 04:41:53;;;;;;;31.33;16.80;;;0.00;99.90;;;;;;5016953;28;20481;-88
2020/12/03 04:44:27;;;;;;;38.73;18.77;;;0.10;99.90;;;;;;5016619;28;20979;-87
2020/12/03 04:47:07;;;;;;;41.00;19.27;;;0.10;99.90;;;;;;5016822;28;20846;-88
2020/12/03 04:49:42;;;;;;;34.30;18.00;;;0.10;99.90;;;;;;5018408;28;20454;-87
2020/12/03 04:52:41;;;;;;;39.10;18.33;;;0.20;99.90;;;;;;5016545;28;20465;-87
2020/12/03 04:55:26;;;;;;;31.80;16.33;;;0.20;99.90;;;;;;5008212;28;20472;-87
2020/12/03 04:58:01;;;;;;;36.00;16.50;;;0.20;99.90;;;;;;5017049;28;20453;-88
2020/12/03 05:00:40;;;;;;;32.97;15.73;;;0.20;99.90;;;;;;5016100;28;20454;-87
2020/12/03 05:03:29;;;;;;;27.80;15.93;;;0.20;99.90;;;;;;5015879;28;20441;-86
2020/12/03 05:06:13;;;;;;;31.07;17.10;;;0.20;99.90;;;;;;5013155;28;20489;-87
2020/12/03 05:08:47;;;;;;;31.77;16.53;;;0.30;99.90;;;;;;5016051;28;20996;-87
2020/12/03 05:11:21;;;;;;;32.17;15.80;;;0.30;99.90;;;;;;5016141;28;20451;-87
2020/12/03 05:13:50;;;;;;;32.00;16.13;;;0.30;99.90;;;;;;5015687;28;20948;-87
2020/12/03 05:16:21;;;;;;;20.90;12.23;;;0.40;99.90;;;;;;5015680;28;20463;-87
2020/12/03 05:18:53;;;;;;;23.53;14.70;;;0.40;99.90;;;;;;5014791;28;20454;-87
2020/12/03 05:21:23;;;;;;;24.87;14.10;;;0.40;99.90;;;;;;5015725;28;20449;-87
2020/12/03 05:23:50;;;;;;;28.83;14.97;;;0.40;99.90;;;;;;5015691;28;20442;-88
2020/12/03 05:26:21;;;;;;;26.00;14.53;;;0.40;99.90;;;;;;5016017;28;21153;-88
2020/12/03 05:28:54;;;;;;;25.93;13.50;;;0.40;99.90;;;;;;5016603;28;20448;-88
2020/12/03 05:31:30;;;;;;;20.70;12.70;;;0.50;99.90;;;;;;5015780;28;20450;-87
2020/12/03 05:34:00;;;;;;;20.47;11.63;;;0.50;99.90;;;;;;5014828;28;20460;-87
2020/12/03 05:36:31;;;;;;;16.13;10.10;;;0.50;99.90;;;;;;5015351;28;20463;-87
2020/12/03 05:39:00;;;;;;;13.90;8.03;;;0.50;99.90;;;;;;5014650;28;20453;-87
2020/12/03 05:41:31;;;;;;;19.53;12.23;;;0.60;99.90;;;;;;5015591;28;20449;-88
2020/12/03 05:43:57;;;;;;;19.63;11.97;;;0.60;99.90;;;;;;5015545;28;20456;-87
2020/12/03 05:46:25;;;;;;;20.90;13.07;;;0.60;99.90;;;;;;5015494;28;20452;-87
2020/12/03 05:48:56;;;;;;;17.83;11.17;;;0.60;99.90;;;;;;5012617;28;20824;-88
2020/12/03 05:51:26;;;;;;;17.73;10.40;;;0.60;99.90;;;;;;5015246;28;20474;-87
2020/12/03 05:53:54;;;;;;;20.97;12.40;;;0.60;99.90;;;;;;5015365;28;20956;-87
2020/12/03 05:56:22;;;;;;;23.53;11.93;;;0.60;99.90;;;;;;5015276;28;20447;-87
2020/12/03 05:58:50;;;;;;;19.70;10.90;;;0.60;99.90;;;;;;5015137;28;20996;-88
2020/12/03 06:01:19;;;;;;;20.03;12.97;;;0.60;99.90;;;;;;5015074;28;20465;-87
2020/12/03 06:04:03;;;;;;;21.80;13.60;;;0.60;99.90;;;;;;5014105;28;20447;-87
2020/12/03 06:06:58;;;;;;;19.87;11.80;;;0.60;99.90;;;;;;5014957;28;20451;-87
2020/12/03 06:09:38;;;;;;;20.97;13.80;;;0.70;99.90;;;;;;5014725;28;20448;-88
2020/12/03 06:12:20;;;;;;;17.20;11.10;;;0.60;99.90;;;;;;5015120;28;20456;-88
2020/12/03 06:15:01;;;;;;;21.20;14.57;;;0.70;99.90;;;;;;5015012;28;20455;-88
2020/12/03 06:17:42;;;;;;;17.13;11.90;;;0.70;99.90;;;;;;5016792;28;20797;-87
2020/12/03 06:20:33;;;;;;;18.57;12.20;;;0.70;99.90;;;;;;5014346;28;20476;-88
2020/12/03 06:23:18;;;;;;;18.00;11.60;;;0.70;99.90;;;;;;5014850;28;20465;-87
2020/12/03 06:25:52;;;;;;;17.90;10.90;;;0.70;99.90;;;;;;5014725;28;21034;-87
2020/12/03 06:28:37;;;;;;;18.90;12.20;;;0.70;99.90;;;;;;5014700;28;20451;-88
2020/12/03 06:31:18;;;;;;;20.80;11.90;;;0.70;99.90;;;;;;5014513;28;20931;-87
2020/12/03 06:33:48;;;;;;;16.70;11.70;;;0.70;99.90;;;;;;5013352;28;20807;-87
2020/12/03 06:36:25;;;;;;;17.10;10.60;;;0.70;99.90;;;;;;5014620;28;20454;-86
2020/12/03 06:39:03;;;;;;;19.43;13.30;;;0.70;99.90;;;;;;5014001;28;20449;-87
2020/12/03 06:41:47;;;;;;;22.50;11.70;;;0.80;99.90;;;;;;5014572;28;20433;-87
2020/12/03 06:44:22;;;;;;;16.27;10.33;;;0.80;99.90;;;;;;5013076;28;20991;-87
2020/12/03 06:47:32;;;;;;;14.93;10.10;;;0.80;99.90;;;;;;5014418;28;20457;-88
2020/12/03 06:50:14;;;;;;;17.67;10.80;;;0.80;99.90;;;;;;5013181;28;20479;-88
2020/12/03 06:53:11;;;;;;;19.87;10.97;;;0.70;99.90;;;;;;5014493;28;20450;-88
2020/12/03 06:56:06;;;;;;;20.73;12.27;;;0.80;99.90;;;;;;5014302;28;20458;-86
2020/12/03 06:59:01;;;;;;;19.40;12.90;;;0.80;99.90;;;;;;5014183;28;20457;-88
2020/12/03 07:02:06;;;;;;;18.60;12.10;;;0.80;99.90;;;;;;5014258;28;20821;-86
2020/12/03 07:05:13;;;;;;;17.00;11.30;;;0.80;99.90;;;;;;5013130;28;20494;-86
2020/12/03 07:08:20;;;;;;;20.80;11.70;;;0.80;99.90;;;;;;5013704;28;20483;-88
2020/12/03 07:11:12;;;;;;;21.53;14.43;;;0.80;99.90;;;;;;5016692;28;20456;-87
2020/12/03 07:14:21;;;;;;;24.67;15.07;;;0.80;99.90;;;;;;5018866;28;21089;-87
2020/12/03 07:17:24;;;;;;;21.90;12.23;;;0.80;99.90;;;;;;5013627;28;20455;-88
2020/12/03 07:20:24;;;;;;;15.63;9.03;;;0.80;99.90;;;;;;5012939;28;20458;-87
2020/12/03 07:22:58;;;;;;;12.57;7.80;;;0.80;99.90;;;;;;5010531;28;20457;-86
2020/12/03 07:25:24;;;;;;;11.87;6.73;;;0.80;99.90;;;;;;5013768;28;20499;-87
2020/12/03 07:28:15;;;;;;;12.17;7.40;;;0.80;99.90;;;;;;5013415;28;20505;-86
2020/12/03 07:30:49;;;;;;;13.97;8.27;;;0.90;99.90;;;;;;5013690;28;20987;-87
2020/12/03 07:33:27;;;;;;;15.20;9.23;;;0.90;99.90;;;;;;5012673;28;20936;-87
2020/12/03 07:36:27;;;;;;;11.70;7.63;;;0.90;99.90;;;;;;5013740;28;20455;-88
2020/12/03 07:38:59;;;;;;;13.37;8.33;;;0.90;99.90;;;;;;5013354;28;20455;-86
2020/12/03 07:41:29;;;;;;;12.53;8.60;;;1.00;99.90;;;;;;5013383;28;20461;-87
2020/12/03 07:44:18;;;;;;;11.40;7.53;;;0.90;99.90;;;;;;5013500;28;20450;-85
2020/12/03 07:46:45;;;;;;;13.90;8.77;;;1.00;99.90;;;;;;5018053;28;20441;-87
2020/12/03 07:49:31;;;;;;;14.20;8.67;;;1.00;99.90;;;;;;5018675;28;20996;-87
2020/12/03 07:52:20;;;;;;;10.90;7.00;;;1.00;99.90;;;;;;5032759;28;20450;-87
2020/12/03 07:54:47;;;;;;;13.53;9.03;;;1.00;99.90;;;;;;5033111;28;20450;-87
2020/12/03 07:57:38;;;;;;;10.83;7.10;;;1.10;99.90;;;;;;5033454;28;20792;-88
2020/12/03 08:00:43;;;;;;;11.67;7.50;;;1.10;99.90;;;;;;5020920;28;20460;-89
2020/12/03 08:03:10;;;;;;;18.33;12.00;;;1.20;99.90;;;;;;5020676;28;20925;-86
2020/12/03 08:06:05;;;;;;;8.40;5.70;;;1.20;99.90;;;;;;5030228;28;20505;-88
2020/12/03 08:08:38;;;;;;;8.27;5.80;;;1.20;99.90;;;;;;5030527;28;20486;-88
2020/12/03 08:11:26;;;;;;;9.70;6.10;;;1.20;99.90;;;;;;5033421;28;20445;-87
2020/12/03 08:13:57;;;;;;;9.07;5.07;;;1.30;99.90;;;;;;5032909;28;20468;-88
2020/12/03 08:16:33;;;;;;;9.70;6.90;;;1.30;99.90;;;;;;5033466;28;20468;-89
2020/12/03 08:19:02;;;;;;;11.60;6.50;;;1.30;99.90;;;;;;5032326;28;20452;-91
2020/12/03 08:21:39;;;;;;;9.60;6.73;;;1.20;99.90;;;;;;5034062;28;20447;-89
2020/12/03 08:24:07;;;;;;;9.23;6.80;;;1.20;99.90;;;;;;5033751;28;20504;-91
2020/12/03 08:26:34;;;;;;;9.00;6.50;;;1.20;99.90;;;;;;5033486;28;20496;-87
2020/12/03 08:29:01;;;;;;;9.50;6.43;;;1.20;99.90;;;;;;5032744;28;20457;-86
2020/12/03 08:31:27;;;;;;;9.80;7.60;;;1.10;99.90;;;;;;5032683;28;20451;-88
2020/12/03 08:33:54;;;;;;;12.30;8.23;;;1.10;99.90;;;;;;5031663;28;20447;-87
2020/12/03 08:36:24;;;;;;;12.20;8.10;;;1.10;99.90;;;;;;5032887;28;20450;-89
2020/12/03 08:38:54;;;;;;;11.87;8.17;;;1.10;99.90;;;;;;5033027;28;20446;-91
2020/12/03 08:41:25;;;;;;;12.37;7.90;;;1.10;99.90;;;;;;5032941;28;20450;-89
2020/12/03 08:43:54;;;;;;;11.37;8.23;;;1.10;99.90;;;;;;5032984;28;20538;-88
2020/12/03 08:46:21;;;;;;;15.97;9.77;;;1.10;99.90;;;;;;5027819;28;20501;-86
2020/12/03 08:48:48;;;;;;;12.90;9.20;;;1.10;99.90;;;;;;5019625;28;20497;-90
2020/12/03 08:51:18;;;;;;;13.97;8.77;;;1.10;99.90;;;;;;5018385;28;20475;-91
2020/12/03 08:53:54;;;;;;;14.83;9.10;;;1.10;99.90;;;;;;5020414;28;20478;-89
2020/12/03 08:56:40;;;;;;;12.60;8.90;;;1.10;99.90;;;;;;5018200;28;20460;-88
2020/12/03 08:59:10;;;;;;;14.43;9.93;;;1.10;99.90;;;;;;5022442;28;20457;-88
2020/12/03 09:01:42;;;;;;;14.03;8.13;;;1.20;99.90;;;;;;5021073;28;20530;-87
2020/12/03 09:04:14;;;;;;;17.27;12.87;;;1.20;99.90;;;;;;5006340;28;20811;-88
2020/12/03 09:06:49;;;;;;;13.97;9.53;;;1.30;99.90;;;;;;5011839;28;20486;-88
2020/12/03 09:09:19;;;;;;;16.07;10.50;;;1.30;99.90;;;;;;5012105;28;20477;-89
2020/12/03 09:11:47;;;;;;;19.10;11.27;;;;;;;;;;5012237;28;20442;-86
2020/12/03 09:14:15;;;;;;;19.73;11.70;;;1.20;99.90;;;;;;5014064;28;20440;-85
2020/12/03 09:16:45;;;;;;;18.37;12.00;;;1.30;99.90;;;;;;5016491;28;20492;-87
2020/12/03 09:19:22;;;;;;;17.27;10.70;;;1.50;99.90;;;;;;5016981;28;20951;-86
2020/12/03 09:21:51;;;;;;;33.40;20.40;;;1.50;99.90;;;;;;5002906;28;20450;-87
2020/12/03 09:24:21;;;;;;;24.40;17.77;;;1.40;99.90;;;;;;5006238;28;20440;-93
2020/12/03 09:26:49;;;;;;;18.83;12.37;;;1.50;99.90;;;;;;5017508;28;20820;-92
2020/12/03 09:29:15;;;;;;;17.47;12.60;;;1.60;99.90;;;;;;5019972;28;20462;-86
2020/12/03 09:31:43;;;;;;;15.83;10.60;;;1.90;99.90;;;;;;5026683;28;20444;-89
2020/12/03 09:34:10;;;;;;;16.67;11.70;;;2.30;99.90;;;;;;5020335;28;20463;-91
2020/12/03 09:36:38;;;;;;;11.47;7.47;;;1.90;99.90;;;;;;5016350;28;20443;-92
2020/12/03 09:39:05;;;;;;;13.30;10.07;;;1.90;99.90;;;;;;5018501;28;20491;-86
2020/12/03 09:41:32;;;;;;;24.17;12.97;;;1.90;99.90;;;;;;5016708;28;20460;-95
2020/12/03 09:44:02;;;;;;;20.10;12.73;;;2.00;99.90;;;;;;5016527;28;20948;-94
2020/12/03 09:46:39;;;;;;;14.03;9.40;;;2.00;99.90;;;;;;5017790;28;20500;-95
2020/12/03 09:49:12;;;;;;;16.10;11.20;;;1.90;99.90;;;;;;5019200;28;20490;-92
2020/12/03 09:51:39;;;;;;;14.03;10.20;;;1.90;99.90;;;;;;5016818;28;20446;-84
2020/12/03 09:54:07;;;;;;;14.37;9.50;;;1.90;99.90;;;;;;5015359;28;20447;-84
2020/12/03 09:56:35;;;;;;;13.37;8.73;;;1.90;99.90;;;;;;5017904;28;20451;-89
2020/12/03 09:59:02;;;;;;;5.63;3.50;;;1.90;99.90;;;;;;5023850;28;20440;-85
2020/12/03 10:01:58;;;;;;;15.47;9.13;;;1.80;99.90;;;;;;5028366;28;20447;-89
2020/12/03 10:04:58;;;;;;;13.80;8.43;;;1.80;99.90;;;;;;5019936;28;20952;-85
2020/12/03 10:07:44;;;;;;;13.90;9.20;;;1.90;99.90;;;;;;5019499;28;20480;-84
2020/12/03 10:10:20;;;;;;;15.97;10.50;;;2.10;99.90;;;;;;5022916;28;20455;-89
2020/12/03 10:13:06;;;;;;;17.43;13.00;;;2.20;99.90;;;;;;5022804;28;20446;-91
2020/12/03 10:15:57;;;;;;;15.60;12.03;;;2.30;99.90;;;;;;5023015;28;20450;-86
2020/12/03 10:18:25;;;;;;;14.63;10.37;;;2.20;99.90;;;;;;5016812;28;20487;-84
2020/12/03 10:20:52;;;;;;;20.80;14.30;;;2.10;99.90;;;;;;5020746;28;20473;-88
2020/12/03 10:23:38;;;;;;;15.20;11.50;;;2.20;99.90;;;;;;5025340;28;20451;-83
2020/12/03 10:26:16;;;;;;;14.73;9.47;;;2.20;99.90;;;;;;5019978;28;20840;-82
2020/12/03 10:28:49;;;;;;;15.70;9.20;;;2.10;99.90;;;;;;5027035;28;20883;-88
2020/12/03 10:31:16;;;;;;;11.87;8.20;;;2.20;99.90;;;;;;5025465;28;20444;-82
2020/12/03 10:33:48;;;;;;;13.00;8.57;;;2.20;99.90;;;;;;5022943;28;20442;-85
2020/12/03 10:36:26;;;;;;;14.00;9.60;;;2.30;99.90;;;;;;5025128;28;20440;-85
2020/12/03 10:38:56;;;;;;;13.37;9.37;;;2.20;99.90;;;;;;5022750;28;20451;-82
2020/12/03 10:41:31;;;;;;;14.00;9.80;;;2.30;99.90;;;;;;5022301;28;20446;-84
2020/12/03 10:44:04;;;;;;;14.23;9.67;;;2.40;99.90;;;;;;5024631;28;20450;-86
2020/12/03 10:46:37;;;;;;;9.10;4.93;;;1.90;99.90;;;;;;5025713;28;20495;-83
2020/12/03 10:49:05;;;;;;;15.53;8.70;;;2.30;99.90;;;;;;5025561;28;20446;-83
2020/12/03 10:51:32;;;;;;;10.03;8.03;;;2.30;99.90;;;;;;5024590;28;20442;-88
2020/12/03 10:53:58;;;;;;;6.27;4.10;;;2.20;99.90;;;;;;5020136;28;20446;-83
2020/12/03 10:56:27;;;;;;;11.10;7.93;;;2.20;99.90;;;;;;5023613;28;20455;-88
2020/12/03 10:59:39;;;;;;;13.37;8.10;;;2.20;99.90;;;;;;5024497;28;20435;-84
2020/12/03 11:02:16;;;;;;;3.13;2.47;;;2.20;99.90;;;;;;5021904;28;20467;-88
2020/12/03 11:04:43;;;;;;;8.90;5.80;;;1.90;99.90;;;;;;5021405;28;20441;-88
2020/12/03 11:07:12;;;;;;;9.30;7.03;;;2.00;99.90;;;;;;5024084;28;20473;-84
2020/12/03 11:09:39;;;;;;;17.13;11.07;;;2.10;99.90;;;;;;5025838;28;20474;-85
2020/12/03 11:12:10;;;;;;;10.13;5.23;;;2.10;99.90;;;;;;5034050;28;20462;-84
2020/12/03 11:14:36;;;;;;;13.83;8.57;;;2.10;99.90;;;;;;5034012;28;20486;-85
2020/12/03 11:17:08;;;;;;;9.60;7.20;;;2.20;99.90;;;;;;5033535;28;20447;-84
2020/12/03 11:19:37;;;;;;;10.70;5.50;;;2.20;99.90;;;;;;5022182;28;20475;-89
2020/12/03 11:22:21;;;;;;;9.40;5.60;;;2.20;99.90;;;;;;5013913;28;20949;-89
2020/12/03 11:24:49;;;;;;;10.50;7.27;;;2.20;99.90;;;;;;5013626;28;20456;-84
2020/12/03 11:27:20;;;;;;;9.67;6.00;;;2.20;99.90;;;;;;5014076;28;20454;-85
2020/12/03 11:29:47;;;;;;;9.60;6.57;;;2.10;99.90;;;;;;5014094;28;20446;-87
2020/12/03 11:32:23;;;;;;;12.60;7.90;;;2.20;99.90;;;;;;5014127;28;20787;-86
2020/12/03 11:34:50;;;;;;;8.10;4.77;;;2.20;99.90;;;;;;5012963;28;20995;-85
2020/12/03 11:37:22;;;;;;;3.10;2.13;;;2.20;99.90;;;;;;5012827;28;20446;-86
2020/12/03 11:39:49;;;;;;;9.33;5.30;;;2.20;99.90;;;;;;5013656;28;20467;-85
2020/12/03 11:42:27;;;;;;;6.87;4.80;;;2.20;99.90;;;;;;5013614;28;20446;-83
2020/12/03 11:48:03;;;;;;;4.87;2.53;;;2.20;99.90;;;;;;5013896;28;20432;-84
2020/12/03 11:50:36;;;;;;;10.60;8.70;;;2.20;99.90;;;;;;5019805;28;20459;-89
2020/12/03 11:53:04;;;;;;;8.67;6.10;;;2.30;99.90;;;;;;5014755;28;20442;-87
2020/12/03 11:55:31;;;;;;;10.70;6.83;;;2.30;99.90;;;;;;5022495;28;20960;-91
2020/12/03 11:58:05;;;;;;;6.07;3.60;;;2.40;99.90;;;;;;5026157;28;20439;-88
2020/12/03 12:00:32;;;;;;;4.73;3.20;;;2.40;99.90;;;;;;5022580;28;20998;-88
2020/12/03 12:03:02;;;;;;;9.20;4.63;;;2.40;99.90;;;;;;5023857;28;20446;-87
2020/12/03 12:05:36;;;;;;;6.00;4.30;;;;;;;;;;5021517;28;20486;-85
2020/12/03 12:08:12;;;;;;;8.90;5.67;;;2.30;99.90;;;;;;5019311;28;20483;-85
2020/12/03 12:10:42;;;;;;;9.97;7.00;;;2.30;99.90;;;;;;5021442;28;20440;-81
2020/12/03 12:13:12;;;;;;;9.80;6.80;;;2.40;99.90;;;;;;5022695;28;20455;-82
2020/12/03 12:15:39;;;;;;;10.23;6.17;;;2.30;99.90;;;;;;5021472;28;20446;-85
2020/12/03 12:18:05;;;;;;;6.67;3.00;;;2.30;99.90;;;;;;5027243;28;20964;-87
2020/12/03 12:20:31;;;;;;;6.50;4.60;;;2.30;99.90;;;;;;5030286;28;20467;-83
2020/12/03 12:22:57;;;;;;;7.07;4.47;;;2.30;99.90;;;;;;5029737;28;20447;-86
2020/12/03 12:25:23;;;;;;;9.30;6.10;;;2.40;99.90;;;;;;5032757;28;20486;-85
2020/12/03 12:27:50;;;;;;;12.90;6.80;;;2.40;99.90;;;;;;5032799;28;20451;-84
2020/12/03 12:30:17;;;;;;;9.73;5.53;;;2.40;99.90;;;;;;5032821;28;20446;-83
2020/12/03 12:32:43;;;;;;;9.80;5.10;;;2.40;99.90;;;;;;5032812;28;20436;-84
2020/12/03 12:35:09;;;;;;;8.53;6.33;;;2.40;99.90;;;;;;5022190;28;20800;-86
2020/12/03 12:37:35;;;;;;;7.67;3.60;;;2.40;99.90;;;;;;5020878;28;20447;-83
2020/12/03 12:40:05;;;;;;;10.00;6.10;;;2.30;99.90;;;;;;5020142;28;20444;-84
2020/12/03 12:42:34;;;;;;;9.20;6.00;;;2.40;99.90;;;;;;5021333;28;20829;-85
2020/12/03 12:45:01;;;;;;;17.00;7.10;;;2.50;99.90;;;;;;5021737;28;20461;-82
2020/12/03 12:47:28;;;;;;;10.60;6.97;;;2.80;99.90;;;;;;5027730;28;20435;-86
2020/12/03 12:49:54;;;;;;;10.00;5.70;;;2.50;99.90;;;;;;5035139;28;20461;-85
2020/12/03 12:52:21;;;;;;;8.93;5.73;;;2.50;99.90;;;;;;5035850;28;20447;-85
2020/12/03 12:54:47;;;;;;;9.33;6.33;;;2.50;99.90;;;;;;5036285;28;20462;-85
2020/12/03 12:57:13;;;;;;;7.17;4.97;;;2.60;99.90;;;;;;5036301;28;20452;-90
2020/12/03 12:59:39;;;;;;;11.30;8.20;;;2.60;99.90;;;;;;5035917;28;20448;-85
2020/12/03 13:02:06;;;;;;;10.03;7.00;;;2.60;99.90;;;;;;5012158;28;20479;-83
2020/12/03 13:04:33;;;;;;;11.80;6.40;;;2.70;99.90;;;;;;5014404;28;20809;-89
2020/12/03 13:07:04;;;;;;;10.23;7.07;;;2.70;99.90;;;;;;5015392;28;20502;-85
2020/12/03 13:09:32;;;;;;;4.53;2.33;;;2.60;99.90;;;;;;5016198;28;20462;-87
2020/12/03 13:11:58;;;;;;;10.17;6.03;;;2.70;99.90;;;;;;5016329;28;20456;-87